sensor_id;sensor_type;location;lat;lon;timestamp;pressure;altitude;pressure_sealevel;temperature;humidity
63808;BME280;49961;43.970;22.868;2023-09-12T00:00:15;101425.50;;;17.62;100.00
63808;BME280;49961;43.970;22.868;2023-09-12T00:01:15;101329.00;;;17.01;100.00
63808;BME280;49961;43.970;22.868;2023-09-12T00:02:16;101416.00;;;17.59;100.00
63808;BME280;49961;43.970;22.868;2023-09-12T00:03:20;101399.72;;;17.45;100.00
63808;BME280;49961;43.970;22.868;2023-09-12T00:04:21;101418.00;;;17.58;100.00
63808;BME280;49961;43.970;22.868;2023-09-12T00:05:21;101418.47;;;17.57;100.00
63808;BME280;49961;43.970;22.868;2023-09-12T00:06:22;101418.44;;;17.48;100.00
63808;BME280;49961;43.970;22.868;2023-09-12T00:07:22;101421.53;;;17.50;100.00
63808;BME280;49961;43.970;22.868;2023-09-12T00:08:23;101421.03;;;17.42;100.00
63808;BME280;49961;43.970;22.868;2023-09-12T00:09:24;101414.47;;;17.36;100.00
63808;BME280;49961;43.970;22.868;2023-09-12T00:10:24;101417.69;;;17.26;100.00
63808;BME280;49961;43.970;22.868;2023-09-12T00:11:25;101330.91;;;16.52;100.00
63808;BME280;49961;43.970;22.868;2023-09-12T00:12:25;101288.25;;;16.27;100.00
63808;BME280;49961;43.970;22.868;2023-09-12T00:13:26;101389.00;;;16.91;100.00
63808;BME280;49961;43.970;22.868;2023-09-12T00:14:26;101421.16;;;17.08;100.00
63808;BME280;49961;43.970;22.868;2023-09-12T00:15:27;101428.78;;;17.08;100.00
63808;BME280;49961;43.970;22.868;2023-09-12T00:16:27;101419.56;;;17.07;100.00
63808;BME280;49961;43.970;22.868;2023-09-12T00:17:28;101427.22;;;17.07;100.00
63808;BME280;49961;43.970;22.868;2023-09-12T00:18:28;101378.28;;;16.68;100.00
63808;BME280;49961;43.970;22.868;2023-09-12T00:19:29;101421.56;;;16.98;100.00
63808;BME280;49961;43.970;22.868;2023-09-12T00:20:29;101422.78;;;16.97;100.00
63808;BME280;49961;43.970;22.868;2023-09-12T00:21:29;101425.28;;;16.95;100.00
63808;BME280;49961;43.970;22.868;2023-09-12T00:22:30;101421.03;;;16.90;100.00
63808;BME280;49961;43.970;22.868;2023-09-12T00:23:30;101423.69;;;16.94;100.00
63808;BME280;49961;43.970;22.868;2023-09-12T00:24:31;101427.28;;;16.94;100.00
63808;BME280;49961;43.970;22.868;2023-09-12T00:25:31;101429.44;;;16.90;100.00
63808;BME280;49961;43.970;22.868;2023-09-12T00:26:31;101305.50;;;16.04;100.00
63808;BME280;49961;43.970;22.868;2023-09-12T00:27:33;101424.75;;;16.88;100.00
63808;BME280;49961;43.970;22.868;2023-09-12T00:28:33;101427.88;;;16.89;100.00
63808;BME280;49961;43.970;22.868;2023-09-12T00:29:34;101430.22;;;16.91;100.00
63808;BME280;49961;43.970;22.868;2023-09-12T00:30:35;101431.78;;;16.92;100.00
63808;BME280;49961;43.970;22.868;2023-09-12T00:31:35;101302.13;;;16.09;100.00
63808;BME280;49961;43.970;22.868;2023-09-12T00:32:35;101425.72;;;16.93;100.00
63808;BME280;49961;43.970;22.868;2023-09-12T00:33:36;101432.09;;;16.94;100.00
63808;BME280;49961;43.970;22.868;2023-09-12T00:34:36;101436.47;;;16.95;100.00
63808;BME280;49961;43.970;22.868;2023-09-12T00:35:37;101434.91;;;16.94;100.00
63808;BME280;49961;43.970;22.868;2023-09-12T00:36:37;101434.59;;;16.92;100.00
63808;BME280;49961;43.970;22.868;2023-09-12T00:37:37;101431.78;;;16.92;100.00
63808;BME280;49961;43.970;22.868;2023-09-12T00:38:38;101419.41;;;16.80;100.00
63808;BME280;49961;43.970;22.868;2023-09-12T00:39:38;101431.13;;;16.88;100.00
63808;BME280;49961;43.970;22.868;2023-09-12T00:40:39;101433.91;;;16.88;100.00
63808;BME280;49961;43.970;22.868;2023-09-12T00:41:39;101432.81;;;16.85;100.00
63808;BME280;49961;43.970;22.868;2023-09-12T00:42:39;101432.06;;;16.85;100.00
63808;BME280;49961;43.970;22.868;2023-09-12T00:43:41;101434.06;;;16.84;100.00
63808;BME280;49961;43.970;22.868;2023-09-12T00:44:42;101431.56;;;16.86;100.00
63808;BME280;49961;43.970;22.868;2023-09-12T00:45:42;101338.88;;;16.20;100.00
63808;BME280;49961;43.970;22.868;2023-09-12T00:46:44;101325.78;;;16.17;100.00
63808;BME280;49961;43.970;22.868;2023-09-12T00:47:46;101347.91;;;16.24;100.00
63808;BME280;49961;43.970;22.868;2023-09-12T00:48:48;101358.53;;;16.29;100.00
63808;BME280;49961;43.970;22.868;2023-09-12T00:49:50;101439.44;;;16.79;100.00
63808;BME280;49961;43.970;22.868;2023-09-12T00:50:51;101435.88;;;16.78;100.00
63808;BME280;49961;43.970;22.868;2023-09-12T00:51:53;101432.75;;;16.76;100.00
63808;BME280;49961;43.970;22.868;2023-09-12T00:52:54;101393.81;;;16.48;100.00
63808;BME280;49961;43.970;22.868;2023-09-12T00:53:56;101440.50;;;16.73;100.00
63808;BME280;49961;43.970;22.868;2023-09-12T00:54:57;101434.13;;;16.72;100.00
63808;BME280;49961;43.970;22.868;2023-09-12T00:55:59;101410.16;;;16.49;100.00
63808;BME280;49961;43.970;22.868;2023-09-12T00:57:00;101439.97;;;16.65;100.00
63808;BME280;49961;43.970;22.868;2023-09-12T00:58:01;101371.75;;;16.16;100.00
63808;BME280;49961;43.970;22.868;2023-09-12T00:59:02;101438.44;;;16.64;100.00
63808;BME280;49961;43.970;22.868;2023-09-12T01:00:05;101440.75;;;16.65;100.00
63808;BME280;49961;43.970;22.868;2023-09-12T01:01:12;101439.63;;;16.63;100.00
63808;BME280;49961;43.970;22.868;2023-09-12T01:02:13;101296.91;;;15.64;100.00
63808;BME280;49961;43.970;22.868;2023-09-12T01:03:13;101438.53;;;16.60;100.00
63808;BME280;49961;43.970;22.868;2023-09-12T01:04:14;101400.47;;;16.29;100.00
63808;BME280;49961;43.970;22.868;2023-09-12T01:05:15;101441.00;;;16.58;100.00
63808;BME280;49961;43.970;22.868;2023-09-12T01:06:19;101443.94;;;16.55;100.00
63808;BME280;49961;43.970;22.868;2023-09-12T01:07:21;101444.06;;;16.52;100.00
63808;BME280;49961;43.970;22.868;2023-09-12T01:08:21;101413.22;;;16.30;100.00
63808;BME280;49961;43.970;22.868;2023-09-12T01:09:21;101441.38;;;16.48;100.00
63808;BME280;49961;43.970;22.868;2023-09-12T01:10:22;101441.06;;;16.46;100.00
63808;BME280;49961;43.970;22.868;2023-09-12T01:11:22;101445.09;;;16.45;100.00
63808;BME280;49961;43.970;22.868;2023-09-12T01:12:24;101444.31;;;16.44;100.00
63808;BME280;49961;43.970;22.868;2023-09-12T01:13:25;101442.75;;;16.43;100.00
63808;BME280;49961;43.970;22.868;2023-09-12T01:14:25;101443.19;;;16.42;100.00
63808;BME280;49961;43.970;22.868;2023-09-12T01:15:25;101443.63;;;16.40;100.00
63808;BME280;49961;43.970;22.868;2023-09-12T01:16:26;101402.31;;;16.10;100.00
63808;BME280;49961;43.970;22.868;2023-09-12T01:17:27;101421.84;;;16.23;100.00
63808;BME280;49961;43.970;22.868;2023-09-12T01:18:27;101444.09;;;16.39;100.00
63808;BME280;49961;43.970;22.868;2023-09-12T01:19:28;101452.13;;;16.37;100.00
63808;BME280;49961;43.970;22.868;2023-09-12T01:20:32;101454.16;;;16.36;100.00
63808;BME280;49961;43.970;22.868;2023-09-12T01:23:55;101452.03;;;16.28;100.00
63808;BME280;49961;43.970;22.868;2023-09-12T01:26:28;101387.38;;;15.79;100.00
63808;BME280;49961;43.970;22.868;2023-09-12T01:27:39;101453.84;;;16.22;100.00
63808;BME280;49961;43.970;22.868;2023-09-12T01:28:42;101461.47;;;16.21;100.00
63808;BME280;49961;43.970;22.868;2023-09-12T01:29:45;101451.03;;;16.22;100.00
63808;BME280;49961;43.970;22.868;2023-09-12T01:30:47;101393.75;;;15.80;100.00
63808;BME280;49961;43.970;22.868;2023-09-12T01:31:49;101452.59;;;16.23;100.00
63808;BME280;49961;43.970;22.868;2023-09-12T01:32:51;101440.22;;;16.11;100.00
63808;BME280;49961;43.970;22.868;2023-09-12T01:33:56;101444.59;;;16.12;100.00
63808;BME280;49961;43.970;22.868;2023-09-12T01:34:57;101453.41;;;16.23;100.00
63808;BME280;49961;43.970;22.868;2023-09-12T01:35:59;101445.69;;;16.15;100.00
63808;BME280;49961;43.970;22.868;2023-09-12T01:36:59;101456.31;;;16.20;100.00
63808;BME280;49961;43.970;22.868;2023-09-12T01:38:00;101460.66;;;16.21;100.00
63808;BME280;49961;43.970;22.868;2023-09-12T01:39:00;101455.88;;;16.21;100.00
63808;BME280;49961;43.970;22.868;2023-09-12T01:40:02;101448.06;;;16.16;100.00
63808;BME280;49961;43.970;22.868;2023-09-12T01:41:03;101365.16;;;15.63;100.00
63808;BME280;49961;43.970;22.868;2023-09-12T01:42:05;101383.28;;;15.71;100.00
63808;BME280;49961;43.970;22.868;2023-09-12T01:43:06;101458.00;;;16.17;100.00
63808;BME280;49961;43.970;22.868;2023-09-12T01:44:09;101370.09;;;15.59;100.00
63808;BME280;49961;43.970;22.868;2023-09-12T01:45:12;101459.13;;;16.07;100.00
63808;BME280;49961;43.970;22.868;2023-09-12T01:46:15;101389.00;;;15.55;100.00
63808;BME280;49961;43.970;22.868;2023-09-12T01:47:16;101451.66;;;15.92;100.00
63808;BME280;49961;43.970;22.868;2023-09-12T01:48:20;101445.63;;;15.81;100.00
63808;BME280;49961;43.970;22.868;2023-09-12T01:49:23;101443.75;;;15.65;100.00
63808;BME280;49961;43.970;22.868;2023-09-12T01:50:27;101447.97;;;15.70;100.00
63808;BME280;49961;43.970;22.868;2023-09-12T01:51:28;101441.72;;;15.66;100.00
63808;BME280;49961;43.970;22.868;2023-09-12T01:52:29;101392.06;;;15.32;100.00
63808;BME280;49961;43.970;22.868;2023-09-12T01:53:31;101448.44;;;15.68;100.00
63808;BME280;49961;43.970;22.868;2023-09-12T01:54:34;101355.97;;;15.00;100.00
63808;BME280;49961;43.970;22.868;2023-09-12T01:55:35;101444.06;;;15.55;100.00
63808;BME280;49961;43.970;22.868;2023-09-12T01:56:36;101449.22;;;15.56;100.00
63808;BME280;49961;43.970;22.868;2023-09-12T01:57:37;101445.63;;;15.56;100.00
63808;BME280;49961;43.970;22.868;2023-09-12T01:58:38;101432.66;;;15.37;100.00
63808;BME280;49961;43.970;22.868;2023-09-12T01:59:39;101452.69;;;15.60;100.00
63808;BME280;49961;43.970;22.868;2023-09-12T02:00:40;101453.56;;;15.57;100.00
63808;BME280;49961;43.970;22.868;2023-09-12T02:01:41;101451.56;;;15.58;100.00
63808;BME280;49961;43.970;22.868;2023-09-12T02:02:43;101455.91;;;15.59;100.00
63808;BME280;49961;43.970;22.868;2023-09-12T02:03:43;101454.69;;;15.60;100.00
63808;BME280;49961;43.970;22.868;2023-09-12T02:04:51;101452.69;;;15.60;100.00
63808;BME280;49961;43.970;22.868;2023-09-12T02:05:54;101439.59;;;15.57;100.00
63808;BME280;49961;43.970;22.868;2023-09-12T02:06:54;101455.69;;;15.66;100.00
63808;BME280;49961;43.970;22.868;2023-09-12T02:07:55;101434.56;;;15.52;100.00
63808;BME280;49961;43.970;22.868;2023-09-12T02:08:55;101457.16;;;15.70;100.00
63808;BME280;49961;43.970;22.868;2023-09-12T02:09:55;101408.78;;;15.36;100.00
63808;BME280;49961;43.970;22.868;2023-09-12T02:10:56;101465.53;;;15.70;100.00
63808;BME280;49961;43.970;22.868;2023-09-12T02:11:56;101459.94;;;15.70;100.00
63808;BME280;49961;43.970;22.868;2023-09-12T02:12:57;101463.19;;;15.69;100.00
63808;BME280;49961;43.970;22.868;2023-09-12T02:13:57;101454.69;;;15.60;100.00
63808;BME280;49961;43.970;22.868;2023-09-12T02:14:57;101417.09;;;15.23;100.00
63808;BME280;49961;43.970;22.868;2023-09-12T02:15:59;101460.28;;;15.60;100.00
63808;BME280;49961;43.970;22.868;2023-09-12T02:16:59;101466.66;;;15.60;100.00
63808;BME280;49961;43.970;22.868;2023-09-12T02:18:00;101462.94;;;15.63;100.00
63808;BME280;49961;43.970;22.868;2023-09-12T02:19:00;101344.13;;;14.84;100.00
63808;BME280;49961;43.970;22.868;2023-09-12T02:20:01;101420.38;;;15.34;100.00
63808;BME280;49961;43.970;22.868;2023-09-12T02:21:01;101465.41;;;15.61;100.00
63808;BME280;49961;43.970;22.868;2023-09-12T02:22:02;101468.66;;;15.60;100.00
63808;BME280;49961;43.970;22.868;2023-09-12T02:23:03;101468.53;;;15.63;100.00
63808;BME280;49961;43.970;22.868;2023-09-12T02:24:03;101474.47;;;15.65;100.00
63808;BME280;49961;43.970;22.868;2023-09-12T02:25:05;101468.09;;;15.65;100.00
63808;BME280;49961;43.970;22.868;2023-09-12T02:26:06;101466.88;;;15.66;100.00
63808;BME280;49961;43.970;22.868;2023-09-12T02:27:06;101332.31;;;14.80;100.00
63808;BME280;49961;43.970;22.868;2023-09-12T02:28:07;101469.22;;;15.67;100.00
63808;BME280;49961;43.970;22.868;2023-09-12T02:29:07;101468.34;;;15.70;100.00
63808;BME280;49961;43.970;22.868;2023-09-12T02:30:10;101459.16;;;15.70;100.00
63808;BME280;49961;43.970;22.868;2023-09-12T02:31:10;101424.50;;;15.42;100.00
63808;BME280;49961;43.970;22.868;2023-09-12T02:32:14;101465.97;;;15.69;100.00
63808;BME280;49961;43.970;22.868;2023-09-12T02:33:14;101459.50;;;15.72;100.00
63808;BME280;49961;43.970;22.868;2023-09-12T02:34:14;101467.44;;;15.73;100.00
63808;BME280;49961;43.970;22.868;2023-09-12T02:35:15;101467.44;;;15.73;100.00
63808;BME280;49961;43.970;22.868;2023-09-12T02:36:15;101465.44;;;15.74;100.00
63808;BME280;49961;43.970;22.868;2023-09-12T02:37:16;101459.59;;;15.68;100.00
63808;BME280;49961;43.970;22.868;2023-09-12T02:38:17;101468.53;;;15.76;100.00
63808;BME280;49961;43.970;22.868;2023-09-12T02:39:18;101429.22;;;15.45;100.00
63808;BME280;49961;43.970;22.868;2023-09-12T02:40:18;101468.91;;;15.78;100.00
63808;BME280;49961;43.970;22.868;2023-09-12T02:41:19;101450.78;;;15.70;100.00
63808;BME280;49961;43.970;22.868;2023-09-12T02:42:19;101464.88;;;15.79;100.00
63808;BME280;49961;43.970;22.868;2023-09-12T02:43:20;101467.53;;;15.82;100.00
63808;BME280;49961;43.970;22.868;2023-09-12T02:44:20;101472.69;;;15.84;100.00
63808;BME280;49961;43.970;22.868;2023-09-12T02:45:20;101437.03;;;15.63;100.00
63808;BME280;49961;43.970;22.868;2023-09-12T02:46:21;101459.72;;;15.77;100.00
63808;BME280;49961;43.970;22.868;2023-09-12T02:47:21;101471.00;;;15.86;100.00
63808;BME280;49961;43.970;22.868;2023-09-12T02:48:22;101474.94;;;15.89;100.00
63808;BME280;49961;43.970;22.868;2023-09-12T02:49:22;101348.16;;;15.08;100.00
63808;BME280;49961;43.970;22.868;2023-09-12T02:50:22;101466.84;;;15.91;100.00
63808;BME280;49961;43.970;22.868;2023-09-12T02:51:25;101444.06;;;15.67;100.00
63808;BME280;49961;43.970;22.868;2023-09-12T02:52:25;101469.09;;;15.96;100.00
63808;BME280;49961;43.970;22.868;2023-09-12T02:53:26;101471.88;;;15.96;100.00
63808;BME280;49961;43.970;22.868;2023-09-12T02:54:26;101464.31;;;15.96;100.00
63808;BME280;49961;43.970;22.868;2023-09-12T02:55:26;101465.84;;;15.97;100.00
63808;BME280;49961;43.970;22.868;2023-09-12T02:56:27;101466.66;;;15.98;100.00
63808;BME280;49961;43.970;22.868;2023-09-12T02:57:27;101469.53;;;15.94;100.00
63808;BME280;49961;43.970;22.868;2023-09-12T02:58:46;101467.97;;;15.93;100.00
63808;BME280;49961;43.970;22.868;2023-09-12T02:59:47;101465.97;;;15.94;100.00
63808;BME280;49961;43.970;22.868;2023-09-12T03:00:47;101463.63;;;15.92;100.00
63808;BME280;49961;43.970;22.868;2023-09-12T03:01:50;101463.88;;;15.85;100.00
63808;BME280;49961;43.970;22.868;2023-09-12T03:02:50;101426.97;;;15.65;100.00
63808;BME280;49961;43.970;22.868;2023-09-12T03:03:51;101466.31;;;15.83;100.00
63808;BME280;49961;43.970;22.868;2023-09-12T03:04:51;101462.94;;;15.88;100.00
63808;BME280;49961;43.970;22.868;2023-09-12T03:05:59;101403.16;;;15.48;100.00
63808;BME280;49961;43.970;22.868;2023-09-12T03:07:00;101477.59;;;15.92;100.00
63808;BME280;49961;43.970;22.868;2023-09-12T03:08:00;101458.03;;;15.92;100.00
63808;BME280;49961;43.970;22.868;2023-09-12T03:09:00;101467.97;;;15.93;100.00
63808;BME280;49961;43.970;22.868;2023-09-12T03:10:01;101463.94;;;15.94;100.00
63808;BME280;49961;43.970;22.868;2023-09-12T03:11:01;101463.94;;;15.94;100.00
63808;BME280;49961;43.970;22.868;2023-09-12T03:12:04;101463.94;;;15.94;100.00
63808;BME280;49961;43.970;22.868;2023-09-12T03:13:04;101264.41;;;14.70;100.00
63808;BME280;49961;43.970;22.868;2023-09-12T03:14:05;101463.94;;;15.94;100.00
63808;BME280;49961;43.970;22.868;2023-09-12T03:15:06;101450.22;;;15.87;100.00
63808;BME280;49961;43.970;22.868;2023-09-12T03:16:10;101461.38;;;15.87;100.00
63808;BME280;49961;43.970;22.868;2023-09-12T03:17:11;101463.19;;;15.94;100.00
63808;BME280;49961;43.970;22.868;2023-09-12T03:18:11;101466.31;;;15.96;100.00
63808;BME280;49961;43.970;22.868;2023-09-12T03:19:12;101463.19;;;15.94;100.00
63808;BME280;49961;43.970;22.868;2023-09-12T03:20:12;101471.56;;;15.94;100.00
63808;BME280;49961;43.970;22.868;2023-09-12T03:21:12;101440.94;;;15.78;100.00
63808;BME280;49961;43.970;22.868;2023-09-12T03:22:13;101468.78;;;15.94;100.00
63808;BME280;49961;43.970;22.868;2023-09-12T03:23:13;101461.94;;;15.95;100.00
63808;BME280;49961;43.970;22.868;2023-09-12T03:24:14;101367.06;;;15.29;100.00
63808;BME280;49961;43.970;22.868;2023-09-12T03:25:14;101450.44;;;15.80;100.00
63808;BME280;49961;43.970;22.868;2023-09-12T03:26:14;101461.84;;;15.86;100.00
63808;BME280;49961;43.970;22.868;2023-09-12T03:27:15;101471.88;;;15.96;100.00
63808;BME280;49961;43.970;22.868;2023-09-12T03:28:15;101424.63;;;15.64;100.00
63808;BME280;49961;43.970;22.868;2023-09-12T03:29:16;101441.84;;;15.75;100.00
63808;BME280;49961;43.970;22.868;2023-09-12T03:30:16;101480.84;;;15.91;100.00
63808;BME280;49961;43.970;22.868;2023-09-12T03:31:16;101470.09;;;15.89;100.00
63808;BME280;49961;43.970;22.868;2023-09-12T03:32:17;101474.47;;;15.90;100.00
63808;BME280;49961;43.970;22.868;2023-09-12T03:33:17;101473.69;;;15.90;100.00
63808;BME280;49961;43.970;22.868;2023-09-12T03:34:18;101471.78;;;15.87;100.00
63808;BME280;49961;43.970;22.868;2023-09-12T03:35:18;101474.81;;;15.80;100.00
63808;BME280;49961;43.970;22.868;2023-09-12T03:36:18;101466.22;;;15.74;100.00
63808;BME280;49961;43.970;22.868;2023-09-12T03:37:19;101469.91;;;15.71;100.00
63808;BME280;49961;43.970;22.868;2023-09-12T03:38:19;101460.41;;;15.69;100.00
63808;BME280;49961;43.970;22.868;2023-09-12T03:39:20;101479.50;;;15.70;100.00
63808;BME280;49961;43.970;22.868;2023-09-12T03:40:20;101477.94;;;15.69;100.00
63808;BME280;49961;43.970;22.868;2023-09-12T03:41:21;101474.47;;;15.65;100.00
63808;BME280;49961;43.970;22.868;2023-09-12T03:42:25;101452.88;;;15.53;100.00
63808;BME280;49961;43.970;22.868;2023-09-12T03:43:25;101473.38;;;15.63;100.00
63808;BME280;49961;43.970;22.868;2023-09-12T03:44:26;101477.41;;;15.62;100.00
63808;BME280;49961;43.970;22.868;2023-09-12T03:45:26;101471.13;;;15.58;100.00
63808;BME280;49961;43.970;22.868;2023-09-12T03:46:27;101472.00;;;15.55;100.00
63808;BME280;49961;43.970;22.868;2023-09-12T03:47:27;101482.06;;;15.52;100.00
63808;BME280;49961;43.970;22.868;2023-09-12T03:48:27;101472.44;;;15.41;100.00
63808;BME280;49961;43.970;22.868;2023-09-12T03:49:30;101470.25;;;15.32;100.00
63808;BME280;49961;43.970;22.868;2023-09-12T03:50:31;101480.47;;;15.39;100.00
63808;BME280;49961;43.970;22.868;2023-09-12T03:51:31;101477.25;;;15.40;100.00
63808;BME280;49961;43.970;22.868;2023-09-12T03:52:31;101345.81;;;14.53;100.00
63808;BME280;49961;43.970;22.868;2023-09-12T03:53:32;101477.81;;;15.35;100.00
63808;BME280;49961;43.970;22.868;2023-09-12T03:54:32;101476.56;;;15.36;100.00
63808;BME280;49961;43.970;22.868;2023-09-12T03:55:33;101482.59;;;15.35;100.00
63808;BME280;49961;43.970;22.868;2023-09-12T03:56:33;101488.97;;;15.35;100.00
63808;BME280;49961;43.970;22.868;2023-09-12T03:57:34;101410.75;;;14.82;100.00
63808;BME280;49961;43.970;22.868;2023-09-12T03:58:34;101495.06;;;15.30;100.00
63808;BME280;49961;43.970;22.868;2023-09-12T03:59:35;101492.59;;;15.32;100.00
63808;BME280;49961;43.970;22.868;2023-09-12T04:00:35;101493.44;;;15.33;100.00
63808;BME280;49961;43.970;22.868;2023-09-12T04:01:36;101487.03;;;15.32;100.00
63808;BME280;49961;43.970;22.868;2023-09-12T04:02:36;101404.50;;;14.78;100.00
63808;BME280;49961;43.970;22.868;2023-09-12T04:03:37;101487.03;;;15.32;100.00
63808;BME280;49961;43.970;22.868;2023-09-12T04:04:37;101455.59;;;15.69;100.00
63808;BME280;49961;43.970;22.868;2023-09-12T04:05:38;101478.59;;;17.34;100.00
63808;BME280;49961;43.970;22.868;2023-09-12T04:06:38;101494.44;;;18.38;100.00
63808;BME280;49961;43.970;22.868;2023-09-12T04:07:38;101495.75;;;18.91;100.00
63808;BME280;49961;43.970;22.868;2023-09-12T04:08:39;101487.16;;;19.31;100.00
63808;BME280;49961;43.970;22.868;2023-09-12T04:09:39;101482.25;;;19.49;100.00
63808;BME280;49961;43.970;22.868;2023-09-12T04:10:40;101482.81;;;19.71;100.00
63808;BME280;49961;43.970;22.868;2023-09-12T04:11:41;101476.47;;;19.94;100.00
63808;BME280;49961;43.970;22.868;2023-09-12T04:12:41;101472.84;;;19.94;100.00
63808;BME280;49961;43.970;22.868;2023-09-12T04:13:41;101464.19;;;20.15;100.00
63808;BME280;49961;43.970;22.868;2023-09-12T04:14:42;101469.88;;;20.30;100.00
63808;BME280;49961;43.970;22.868;2023-09-12T04:15:42;101475.81;;;20.32;100.00
63808;BME280;49961;43.970;22.868;2023-09-12T04:16:43;101475.16;;;20.37;100.00
63808;BME280;49961;43.970;22.868;2023-09-12T04:17:43;101469.28;;;20.49;100.00
63808;BME280;49961;43.970;22.868;2023-09-12T04:18:44;101476.47;;;20.50;100.00
63808;BME280;49961;43.970;22.868;2023-09-12T04:19:44;101468.78;;;20.51;100.00
63808;BME280;49961;43.970;22.868;2023-09-12T04:20:45;101476.28;;;20.54;100.00
63808;BME280;49961;43.970;22.868;2023-09-12T04:21:45;101475.56;;;20.44;100.00
63808;BME280;49961;43.970;22.868;2023-09-12T04:22:46;101473.47;;;20.30;100.00
63808;BME280;49961;43.970;22.868;2023-09-12T04:23:46;101475.16;;;20.13;100.00
63808;BME280;49961;43.970;22.868;2023-09-12T04:24:47;101477.56;;;20.29;100.00
63808;BME280;49961;43.970;22.868;2023-09-12T04:25:47;101484.19;;;20.64;100.00
63808;BME280;49961;43.970;22.868;2023-09-12T04:26:47;101434.75;;;20.63;100.00
63808;BME280;49961;43.970;22.868;2023-09-12T04:27:48;101470.00;;;20.97;100.00
63808;BME280;49961;43.970;22.868;2023-09-12T04:28:48;101309.28;;;20.10;100.00
63808;BME280;49961;43.970;22.868;2023-09-12T04:29:49;101471.97;;;21.34;100.00
63808;BME280;49961;43.970;22.868;2023-09-12T04:30:49;101473.34;;;21.53;100.00
63808;BME280;49961;43.970;22.868;2023-09-12T04:31:49;101460.09;;;21.59;100.00
63808;BME280;49961;43.970;22.868;2023-09-12T04:32:52;101472.84;;;21.69;100.00
63808;BME280;49961;43.970;22.868;2023-09-12T04:33:53;101465.84;;;21.50;100.00
63808;BME280;49961;43.970;22.868;2023-09-12T04:34:54;101474.69;;;21.43;100.00
63808;BME280;49961;43.970;22.868;2023-09-12T04:35:57;101471.78;;;21.23;100.00
63808;BME280;49961;43.970;22.868;2023-09-12T04:36:58;101454.47;;;21.16;100.00
63808;BME280;49961;43.970;22.868;2023-09-12T04:37:59;101430.06;;;20.98;100.00
63808;BME280;49961;43.970;22.868;2023-09-12T04:38:59;101472.47;;;21.18;100.00
63808;BME280;49961;43.970;22.868;2023-09-12T04:40:00;101476.75;;;21.14;100.00
63808;BME280;49961;43.970;22.868;2023-09-12T04:41:02;101485.78;;;21.18;100.00
63808;BME280;49961;43.970;22.868;2023-09-12T04:42:05;101473.44;;;21.44;100.00
63808;BME280;49961;43.970;22.868;2023-09-12T04:43:05;101471.97;;;21.63;100.00
63808;BME280;49961;43.970;22.868;2023-09-12T04:44:05;101472.53;;;21.53;100.00
63808;BME280;49961;43.970;22.868;2023-09-12T04:45:06;101478.47;;;21.40;100.00
63808;BME280;49961;43.970;22.868;2023-09-12T04:46:07;101476.03;;;21.48;100.00
63808;BME280;49961;43.970;22.868;2023-09-12T04:47:08;101486.19;;;21.40;100.00
63808;BME280;49961;43.970;22.868;2023-09-12T04:48:08;101481.38;;;21.60;100.00
63808;BME280;49961;43.970;22.868;2023-09-12T04:49:08;101477.97;;;21.85;100.00
63808;BME280;49961;43.970;22.868;2023-09-12T04:50:09;101479.78;;;22.03;100.00
63808;BME280;49961;43.970;22.868;2023-09-12T04:51:11;101480.59;;;22.03;100.00
63808;BME280;49961;43.970;22.868;2023-09-12T04:52:12;101488.63;;;22.10;100.00
63808;BME280;49961;43.970;22.868;2023-09-12T04:53:12;101480.97;;;22.31;100.00
63808;BME280;49961;43.970;22.868;2023-09-12T04:54:13;101485.34;;;22.32;100.00
63808;BME280;49961;43.970;22.868;2023-09-12T04:55:13;101472.47;;;22.11;100.00
63808;BME280;49961;43.970;22.868;2023-09-12T04:56:14;101490.19;;;22.11;100.00
63808;BME280;49961;43.970;22.868;2023-09-12T04:57:14;101477.63;;;22.32;100.00
63808;BME280;49961;43.970;22.868;2023-09-12T04:58:14;101485.09;;;22.50;100.00
63808;BME280;49961;43.970;22.868;2023-09-12T04:59:15;101481.91;;;22.62;100.00
63808;BME280;49961;43.970;22.868;2023-09-12T05:00:15;101494.28;;;22.65;100.00
63808;BME280;49961;43.970;22.868;2023-09-12T05:01:16;101489.91;;;22.64;100.00
63808;BME280;49961;43.970;22.868;2023-09-12T05:02:17;101487.22;;;22.75;100.00
63808;BME280;49961;43.970;22.868;2023-09-12T05:03:17;101476.34;;;22.48;100.00
63808;BME280;49961;43.970;22.868;2023-09-12T05:04:17;101492.41;;;22.42;100.00
63808;BME280;49961;43.970;22.868;2023-09-12T05:05:18;101493.69;;;22.41;100.00
63808;BME280;49961;43.970;22.868;2023-09-12T05:06:18;101486.31;;;22.29;100.00
63808;BME280;49961;43.970;22.868;2023-09-12T05:07:19;101478.63;;;22.09;100.00
63808;BME280;49961;43.970;22.868;2023-09-12T05:08:19;101485.28;;;21.92;100.00
63808;BME280;49961;43.970;22.868;2023-09-12T05:09:20;101491.41;;;21.90;100.00
63808;BME280;49961;43.970;22.868;2023-09-12T05:10:20;101486.25;;;21.89;100.00
63808;BME280;49961;43.970;22.868;2023-09-12T05:11:24;101389.06;;;21.12;100.00
63808;BME280;49961;43.970;22.868;2023-09-12T05:12:24;101496.38;;;21.52;100.00
63808;BME280;49961;43.970;22.868;2023-09-12T05:13:24;101475.56;;;21.06;100.00
63808;BME280;49961;43.970;22.868;2023-09-12T05:14:25;101488.88;;;21.05;100.00